If you wish to contribute or participate in the discussions about articles you are invited to join SKYbrary as a registered user

 Actions

Teniente FAP Jaime A De Montreuil Morales Airport

From SKYbrary Wiki

SPEO
Airport
ICAO: SPEO – IATA: CHM
Summary
Name Teniente FAP Jaime A De Montreuil Morales Airport
Region South America and Caribbean
Territory Peru PE.gif
Location Chimbote, Ancash
Serving Chimbote
Elevation 21.031 m
69 ft
69 ft21.031 m
Type medium airport
Coordinates 9° 8' 58.61" S, 78° 31' 25.86" W
Runways
Designator Length Width Surface ROPS
1/19 1800 m5,905.512 ft
30 m98.425 ft
ASP /


METAR
Observation SPEO 171400Z 19008KT 9000 OVC008 17/16 Q1017 RMK BIRD HAZARD RWY 01 PP000
Station Chimbote
Date/Time 17 September 2019 14:00:00
Wind direction 190°
Wind speed 08 kts
Lowest cloud amount overcast
Temperature 17°C
Dew point 16°C
Humidity 93%
QNH 1017 hPa
Weather condition n/a

Airport serving Chimbote, in the Ancash Region of Peru.

Climatology

Mild Desert climate (Köppen climate classification BWh).

Maps

Terrain

Loading map...

Airport Layout

Loading map...


Accidents & Serious Incidents at or in vicinity of SPEO

None on SKYbrary